Strona główna
METAR-TAF:

METAR-TAF

Lotnisko :

Philip Municipal Airport

Philip, Dakota Południowa, Stany Zjednoczone

Szerokość geograficzna: 44-03-04N, Długość geograficzna: 101-36-04W, wysokość: 673 m

Aktualna obserwacja pogody

Raport powstał 1 godzina i 9 minut temu, godzina 17:55 UTC
Wiatr 25 kt od północny zachód w porywach dochodzący do 38 kt
Temperatura 11°C
Wilgotność 35%
Ciśnienie 1009 hPa
Widzialność: 16.1 km
Mało chmury na wysokości 8000 ft

METAR: KPHP 111755Z AUTO 31025G38KT 10SM FEW080 11/M04 A2979 RMK AO2 PK WND 33040/1713 SLP094 T01111044 10111 20039 50004

czas: 13:04 (19:04 UTC)


TAF: brakujący

Obserwacja i prognoza pogody dla ponad 4000 lotnisk (raport METAR i TAF).

Dostępne stacje oznaczono żółtymi i czerwonymi punktami na mapie.

Najedź kursorem aby zobaczyć nazwę stacji.

Kliknij aby zobaczyć obserwacje i prognozy pogody.

Aby zmienić mapę: kliknij na zielony przycisk z czarnym krzyżykiem, aby powiększyć; na zielony przycisk z myślnikiem, aby pomniejszyć; na zielone strzałki, aby przejść do map sąsiednich.


METAR-TAF: